Time;durP1;ratioP1;P1;durP2;ratioP2;P2;SDS_P1;SDS_P2;PMS_P1;PMS_P2;Temp;Humidity;BMP_temperature;BMP_pressure;BME280_temperature;BME280_humidity;BME280_pressure;Samples;Min_cycle;Max_cycle;Signal;HPM_P1;HPM_P2
2023/07/12 00:00:16;;;;;;;14.40;4.75;;;;;;;;;;5092842;28;20055;-83
2023/07/12 00:02:44;;;;;;;23.98;5.13;;;;;;;;;;5093706;28;20093;-84
2023/07/12 00:05:11;;;;;;;32.13;5.63;;;;;;;;;;5092915;28;20548;-85
2023/07/12 00:07:39;;;;;;;56.88;6.28;;;;;;;;;;5092944;28;20059;-86
2023/07/12 00:10:20;;;;;;;15.05;4.22;;;;;;;;;;5092261;28;20084;-84
2023/07/12 00:12:48;;;;;;;28.45;4.30;;;;;;;;;;5092918;28;20571;-81
2023/07/12 00:15:17;;;;;;;15.45;3.78;;;;;;;;;;5093478;28;20052;-82
2023/07/12 00:17:45;;;;;;;10.45;3.13;;;;;;;;;;5092941;28;20094;-83
2023/07/12 00:20:27;;;;;;;16.42;3.13;;;;;;;;;;5093154;28;20138;-83
2023/07/12 00:22:55;;;;;;;11.23;2.63;;;;;;;;;;5092553;28;20052;-84
2023/07/12 00:25:25;;;;;;;10.43;2.65;;;;;;;;;;5092994;28;20044;-82
2023/07/12 00:27:53;;;;;;;7.35;2.20;;;;;;;;;;5093168;28;20052;-92
2023/07/12 00:30:38;;;;;;;13.55;2.30;;;;;;;;;;5092976;28;20047;-93
2023/07/12 00:33:05;;;;;;;8.63;2.20;;;;;;;;;;5092520;28;20107;-85
2023/07/12 00:35:33;;;;;;;21.98;2.60;;;;;;;;;;5093703;28;20193;-87
2023/07/12 00:38:01;;;;;;;63.03;5.90;;;;;;;;;;5091691;28;20040;-86
2023/07/12 00:40:28;;;;;;;11.60;2.85;;;;;;;;;;5092877;28;20071;-81
2023/07/12 00:42:59;;;;;;;4.43;1.90;;;;;;;;;;5091494;28;20051;-83
2023/07/12 00:45:26;;;;;;;7.75;2.38;;;;;;;;;;5092905;28;20076;-86
2023/07/12 00:47:53;;;;;;;9.05;2.28;;;;;;;;;;5091698;28;20055;-81
2023/07/12 00:50:21;;;;;;;12.68;2.20;;;;;;;;;;5092200;28;20051;-79
2023/07/12 00:52:48;;;;;;;12.20;2.15;;;;;;;;;;5092474;28;20047;-89
2023/07/12 00:55:36;;;;;;;4.97;2.15;;;;;;;;;;5092136;28;20051;-84
2023/07/12 00:58:03;;;;;;;6.10;2.28;;;;;;;;;;5070761;28;20072;-85
2023/07/12 01:00:30;;;;;;;7.68;2.15;;;;;;;;;;5091748;28;20389;-84
2023/07/12 01:03:00;;;;;;;5.53;2.00;;;;;;;;;;5091207;28;20078;-87
2023/07/12 01:05:28;;;;;;;7.70;2.10;;;;;;;;;;5091705;28;20130;-86
2023/07/12 01:07:55;;;;;;;3.70;2.30;;;;;;;;;;5091860;28;20105;-82
2023/07/12 01:10:23;;;;;;;4.32;2.42;;;;;;;;;;5091334;28;20044;-90
2023/07/12 01:12:50;;;;;;;2.78;2.00;;;;;;;;;;5090778;28;20089;-83
2023/07/12 01:15:17;;;;;;;2.40;2.20;;;;;;;;;;5092306;28;20101;-83
2023/07/12 01:17:45;;;;;;;6.85;2.00;;;;;;;;;;5090880;28;20088;-83
2023/07/12 01:20:12;;;;;;;4.63;1.80;;;;;;;;;;5091263;28;20511;-83
2023/07/12 01:22:39;;;;;;;1.98;1.65;;;;;;;;;;5092092;28;20048;-84
2023/07/12 01:25:07;;;;;;;6.85;1.73;;;;;;;;;;5091929;28;20048;-83
2023/07/12 01:27:34;;;;;;;2.45;1.95;;;;;;;;;;5091904;28;20549;-87
2023/07/12 01:30:01;;;;;;;2.97;1.70;;;;;;;;;;5092145;28;20048;-83
2023/07/12 01:32:30;;;;;;;3.85;2.22;;;;;;;;;;5091781;28;20510;-83
2023/07/12 01:34:57;;;;;;;4.47;2.00;;;;;;;;;;5090928;28;20040;-83
2023/07/12 01:37:25;;;;;;;3.47;1.98;;;;;;;;;;5091883;28;20080;-82
2023/07/12 01:39:52;;;;;;;2.53;1.58;;;;;;;;;;5090775;28;20083;-83
2023/07/12 01:42:19;;;;;;;2.22;1.83;;;;;;;;;;5090457;28;20411;-87
2023/07/12 01:44:47;;;;;;;2.20;2.00;;;;;;;;;;5090758;28;20052;-86
2023/07/12 01:47:14;;;;;;;2.03;1.85;;;;;;;;;;5091771;28;20093;-83
2023/07/12 01:49:41;;;;;;;1.90;1.77;;;;;;;;;;5094013;28;20078;-83
2023/07/12 01:52:09;;;;;;;4.38;1.98;;;;;;;;;;5094253;28;20492;-83
2023/07/12 01:54:36;;;;;;;2.15;1.80;;;;;;;;;;5095477;28;20496;-82
2023/07/12 01:57:03;;;;;;;3.72;1.85;;;;;;;;;;5095729;28;20490;-82
2023/07/12 01:59:31;;;;;;;5.97;2.28;;;;;;;;;;5095439;28;20165;-82
2023/07/12 02:01:58;;;;;;;4.88;2.15;;;;;;;;;;5094257;28;20076;-83
2023/07/12 02:04:25;;;;;;;3.53;2.28;;;;;;;;;;5094424;28;20048;-82
2023/07/12 02:06:53;;;;;;;3.88;2.00;;;;;;;;;;5094515;28;20496;-82
2023/07/12 02:09:20;;;;;;;5.30;2.00;;;;;;;;;;5094116;28;20040;-82
2023/07/12 02:11:47;;;;;;;6.10;1.98;;;;;;;;;;5093638;28;20047;-81
2023/07/12 02:14:14;;;;;;;2.20;2.00;;;;;;;;;;5094191;28;20047;-82
2023/07/12 02:16:42;;;;;;;3.53;2.35;;;;;;;;;;5094069;28;20076;-82
2023/07/12 02:19:09;;;;;;;1.83;1.60;;;;;;;;;;5094246;28;20097;-81
2023/07/12 02:21:36;;;;;;;3.58;1.85;;;;;;;;;;5093848;28;20044;-81
2023/07/12 02:24:03;;;;;;;3.65;2.05;;;;;;;;;;5095090;28;20070;-83
2023/07/12 02:26:31;;;;;;;1.67;1.60;;;;;;;;;;5094916;28;20440;-82
2023/07/12 02:28:58;;;;;;;1.98;1.67;;;;;;;;;;5094126;28;20101;-82
2023/07/12 02:31:25;;;;;;;2.00;1.80;;;;;;;;;;5093707;28;20187;-82
2023/07/12 02:33:53;;;;;;;2.55;2.10;;;;;;;;;;5094985;28;20048;-84
2023/07/12 02:36:20;;;;;;;4.05;1.92;;;;;;;;;;5093761;28;20066;-83
2023/07/12 02:38:47;;;;;;;6.32;2.08;;;;;;;;;;5093601;28;20087;-82
2023/07/12 02:41:15;;;;;;;7.68;2.50;;;;;;;;;;5093228;28;20040;-82
2023/07/12 02:43:43;;;;;;;9.43;2.50;;;;;;;;;;5093390;28;20135;-82
2023/07/12 02:46:11;;;;;;;3.83;1.90;;;;;;;;;;5094830;28;20048;-83
2023/07/12 02:48:38;;;;;;;5.35;1.90;;;;;;;;;;5093168;28;20040;-82
2023/07/12 02:51:05;;;;;;;2.65;1.98;;;;;;;;;;5092863;28;20109;-82
2023/07/12 02:53:34;;;;;;;3.30;1.95;;;;;;;;;;5092968;28;20052;-82
2023/07/12 02:56:05;;;;;;;4.90;2.33;;;;;;;;;;5094601;28;20122;-83
2023/07/12 02:58:32;;;;;;;2.35;2.10;;;;;;;;;;5093230;28;20075;-82
2023/07/12 03:00:59;;;;;;;2.30;2.10;;;;;;;;;;5092191;28;20048;-82
2023/07/12 03:03:28;;;;;;;8.05;2.40;;;;;;;;;;5094495;28;20416;-82
2023/07/12 03:05:56;;;;;;;4.10;2.05;;;;;;;;;;5093099;28;20052;-82
2023/07/12 03:08:24;;;;;;;5.32;2.33;;;;;;;;;;5093153;28;20044;-82
2023/07/12 03:10:51;;;;;;;6.50;2.13;;;;;;;;;;5094005;28;20044;-82
2023/07/12 03:13:18;;;;;;;4.00;2.08;;;;;;;;;;5093029;28;20055;-82
2023/07/12 03:15:45;;;;;;;4.57;2.17;;;;;;;;;;5094062;28;20048;-82
2023/07/12 03:18:12;;;;;;;3.80;2.53;;;;;;;;;;5094197;28;20393;-82
2023/07/12 03:20:40;;;;;;;2.53;2.15;;;;;;;;;;5092522;28;20850;-82
2023/07/12 03:23:07;;;;;;;1.88;1.77;;;;;;;;;;5092989;28;20048;-83
2023/07/12 03:25:34;;;;;;;3.38;2.03;;;;;;;;;;5092498;28;20059;-83
2023/07/12 03:28:01;;;;;;;3.30;1.95;;;;;;;;;;5092997;28;20109;-83
2023/07/12 03:30:29;;;;;;;2.65;2.10;;;;;;;;;;5093593;28;20085;-81
2023/07/12 03:32:56;;;;;;;2.72;1.88;;;;;;;;;;5092772;28;20210;-84
2023/07/12 03:35:23;;;;;;;2.45;1.50;;;;;;;;;;5092594;28;20051;-84
2023/07/12 03:37:51;;;;;;;1.80;1.60;;;;;;;;;;5092725;28;20048;-84
2023/07/12 03:40:18;;;;;;;2.17;2.00;;;;;;;;;;5094001;28;20086;-82
2023/07/12 03:42:45;;;;;;;1.92;1.70;;;;;;;;;;5092463;28;20397;-83
2023/07/12 03:45:13;;;;;;;2.35;1.95;;;;;;;;;;5092919;28;20135;-83
2023/07/12 03:47:40;;;;;;;2.35;1.83;;;;;;;;;;5092615;28;20113;-82
2023/07/12 03:50:07;;;;;;;5.75;2.00;;;;;;;;;;5092572;28;20047;-87
2023/07/12 03:52:35;;;;;;;14.98;3.33;;;;;;;;;;5092185;28;20052;-82
2023/07/12 03:55:02;;;;;;;3.08;2.13;;;;;;;;;;5092576;28;20052;-84
2023/07/12 03:57:30;;;;;;;5.90;2.00;;;;;;;;;;5092273;28;20076;-83
2023/07/12 03:59:57;;;;;;;3.40;1.92;;;;;;;;;;5092284;28;20086;-82
2023/07/12 04:02:24;;;;;;;3.78;1.92;;;;;;;;;;5092284;28;20072;-84
2023/07/12 04:04:52;;;;;;;4.47;2.00;;;;;;;;;;5093215;28;20488;-83
2023/07/12 04:07:19;;;;;;;3.13;2.05;;;;;;;;;;5092951;28;20048;-83
2023/07/12 04:09:47;;;;;;;4.32;1.95;;;;;;;;;;5091736;28;20149;-82
2023/07/12 04:12:14;;;;;;;3.20;2.15;;;;;;;;;;5090956;28;20063;-84
2023/07/12 04:14:41;;;;;;;2.25;2.00;;;;;;;;;;5091751;28;20484;-83
2023/07/12 04:17:09;;;;;;;3.22;2.00;;;;;;;;;;5091817;28;20082;-83
2023/07/12 04:19:36;;;;;;;2.85;1.77;;;;;;;;;;5092906;28;20105;-83
2023/07/12 04:22:03;;;;;;;4.65;1.90;;;;;;;;;;5091991;28;20074;-85
2023/07/12 04:24:30;;;;;;;4.47;2.00;;;;;;;;;;5091696;28;20070;-83
2023/07/12 04:26:59;;;;;;;2.95;2.10;;;;;;;;;;5092763;28;20043;-82
2023/07/12 04:29:27;;;;;;;2.20;2.10;;;;;;;;;;5091472;28;20416;-82
2023/07/12 04:31:55;;;;;;;2.45;1.90;;;;;;;;;;5091679;28;20055;-83
2023/07/12 04:34:22;;;;;;;2.13;1.88;;;;;;;;;;5091656;28;20066;-87
2023/07/12 04:36:55;;;;;;;2.40;2.20;;;;;;;;;;5091654;28;20048;-83
2023/07/12 04:39:23;;;;;;;2.67;1.98;;;;;;;;;;5092567;28;20492;-83
2023/07/12 04:41:50;;;;;;;2.53;1.85;;;;;;;;;;5091095;28;20095;-83
2023/07/12 04:44:17;;;;;;;4.07;2.15;;;;;;;;;;5092982;28;20442;-83
2023/07/12 04:46:44;;;;;;;2.60;1.45;;;;;;;;;;5091175;28;20079;-84
2023/07/12 04:49:12;;;;;;;2.22;1.98;;;;;;;;;;5092709;28;20531;-82
2023/07/12 04:51:39;;;;;;;5.75;2.05;;;;;;;;;;5092397;28;20043;-85
2023/07/12 04:54:06;;;;;;;4.28;1.60;;;;;;;;;;5091963;28;20047;-84
2023/07/12 04:56:33;;;;;;;3.35;1.63;;;;;;;;;;5092817;28;20488;-85
2023/07/12 04:59:01;;;;;;;3.05;1.80;;;;;;;;;;5092459;28;20044;-84
2023/07/12 05:01:31;;;;;;;2.17;1.75;;;;;;;;;;5091462;28;20526;-83
2023/07/12 05:04:00;;;;;;;3.50;1.83;;;;;;;;;;5091047;28;20557;-84
2023/07/12 05:06:27;;;;;;;2.20;1.63;;;;;;;;;;5091322;28;20048;-84
2023/07/12 05:08:54;;;;;;;4.13;1.58;;;;;;;;;;5092157;28;20052;-84
2023/07/12 05:11:22;;;;;;;7.25;2.25;;;;;;;;;;5092237;28;20408;-82
2023/07/12 05:13:49;;;;;;;2.95;1.80;;;;;;;;;;5091123;28;20048;-83
2023/07/12 05:16:17;;;;;;;3.15;1.65;;;;;;;;;;5091502;28;20052;-83
2023/07/12 05:18:44;;;;;;;2.15;1.95;;;;;;;;;;5091019;28;20164;-85
2023/07/12 05:21:12;;;;;;;1.73;1.15;;;;;;;;;;5092316;28;20172;-83
2023/07/12 05:23:40;;;;;;;5.65;1.80;;;;;;;;;;5091974;28;20140;-85
2023/07/12 05:26:09;;;;;;;3.65;1.88;;;;;;;;;;5095840;28;20063;-84
2023/07/12 05:28:36;;;;;;;4.57;1.77;;;;;;;;;;5097413;28;20044;-83
2023/07/12 05:31:10;;;;;;;4.80;2.05;;;;;;;;;;5095620;28;20516;-85
2023/07/12 05:33:41;;;;;;;6.00;1.75;;;;;;;;;;5095604;28;20043;-88
2023/07/12 05:36:09;;;;;;;3.55;1.65;;;;;;;;;;5095174;28;20056;-84
2023/07/12 05:38:36;;;;;;;9.93;1.70;;;;;;;;;;5094833;28;20442;-81
2023/07/12 05:41:03;;;;;;;8.43;1.77;;;;;;;;;;5096483;28;20047;-87
2023/07/12 05:43:33;;;;;;;7.30;1.50;;;;;;;;;;5095872;28;20071;-82
2023/07/12 05:46:01;;;;;;;3.60;1.30;;;;;;;;;;5094877;28;20040;-82
2023/07/12 05:48:28;;;;;;;2.33;1.20;;;;;;;;;;5095137;28;20454;-83
2023/07/12 05:50:58;;;;;;;1.20;1.10;;;;;;;;;;5096104;28;20040;-81
2023/07/12 05:53:26;;;;;;;4.15;1.40;;;;;;;;;;5094627;28;20048;-91
2023/07/12 05:55:57;;;;;;;2.33;0.98;;;;;;;;;;5094714;28;20055;-82
2023/07/12 05:58:25;;;;;;;6.10;1.40;;;;;;;;;;5094815;28;20104;-82
2023/07/12 06:00:58;;;;;;;8.35;4.35;;;;;;;;;;5094441;28;20048;-82
2023/07/12 06:03:26;;;;;;;5.55;1.60;;;;;;;;;;5095178;28;20121;-86
2023/07/12 06:05:54;;;;;;;2.28;1.60;;;;;;;;;;5096097;28;20427;-84
2023/07/12 06:08:21;;;;;;;4.63;1.52;;;;;;;;;;5094784;28;20043;-81
2023/07/12 06:10:49;;;;;;;5.82;1.23;;;;;;;;;;5094051;28;20044;-82
2023/07/12 06:13:16;;;;;;;4.38;1.40;;;;;;;;;;5094238;28;20076;-85
2023/07/12 06:15:43;;;;;;;2.33;1.60;;;;;;;;;;5093979;28;20059;-82
2023/07/12 06:18:10;;;;;;;4.47;1.58;;;;;;;;;;5093854;28;20079;-84
2023/07/12 06:20:39;;;;;;;7.13;2.03;;;;;;;;;;5094100;28;20047;-84
2023/07/12 06:23:06;;;;;;;6.57;1.70;;;;;;;;;;5094411;28;20102;-85
2023/07/12 06:25:33;;;;;;;3.38;1.38;;;;;;;;;;5093924;28;20480;-84
2023/07/12 06:28:00;;;;;;;4.25;1.38;;;;;;;;;;5094136;28;20048;-84
2023/07/12 06:30:28;;;;;;;3.80;1.40;;;;;;;;;;5094012;28;20048;-85
2023/07/12 06:32:55;;;;;;;11.55;2.20;;;;;;;;;;5094625;28;20052;-84
2023/07/12 06:35:22;;;;;;;2.85;1.50;;;;;;;;;;5093286;28;20048;-83
2023/07/12 06:37:50;;;;;;;4.28;1.50;;;;;;;;;;5093680;28;20129;-85
2023/07/12 06:40:17;;;;;;;7.05;1.95;;;;;;;;;;5095113;28;20511;-83
2023/07/12 06:42:44;;;;;;;8.52;5.40;;;;;;;;;;5092999;28;20161;-85
2023/07/12 06:45:12;;;;;;;5.28;2.38;;;;;;;;;;5093774;28;20558;-85
2023/07/12 06:47:39;;;;;;;3.63;1.65;;;;;;;;;;5093576;28;20051;-81
2023/07/12 06:50:07;;;;;;;6.93;1.77;;;;;;;;;;5092895;28;20044;-83
2023/07/12 06:52:34;;;;;;;4.68;1.85;;;;;;;;;;5093032;28;20504;-88
2023/07/12 06:55:01;;;;;;;2.80;1.70;;;;;;;;;;5093524;28;20083;-86
2023/07/12 06:57:29;;;;;;;3.25;1.65;;;;;;;;;;5093322;28;20464;-85
2023/07/12 06:59:56;;;;;;;2.45;1.67;;;;;;;;;;5094482;28;20500;-83
2023/07/12 07:02:23;;;;;;;5.63;2.08;;;;;;;;;;5093418;28;20097;-82
2023/07/12 07:04:50;;;;;;;6.00;2.08;;;;;;;;;;5093484;28;20051;-81
2023/07/12 07:07:17;;;;;;;5.82;2.63;;;;;;;;;;5093374;28;20087;-81
2023/07/12 07:09:45;;;;;;;11.70;2.75;;;;;;;;;;5093151;28;20059;-83
2023/07/12 07:12:13;;;;;;;6.35;2.40;;;;;;;;;;5094444;28;20089;-85
2023/07/12 07:14:40;;;;;;;4.28;2.35;;;;;;;;;;5092927;28;20113;-84
2023/07/12 07:17:08;;;;;;;4.88;2.40;;;;;;;;;;5092957;28;20462;-84
2023/07/12 07:19:35;;;;;;;3.83;2.50;;;;;;;;;;5092921;28;20464;-84
2023/07/12 07:22:03;;;;;;;5.35;2.35;;;;;;;;;;5092800;28;20048;-83
2023/07/12 07:24:30;;;;;;;4.82;2.50;;;;;;;;;;5093909;28;20048;-84
2023/07/12 07:26:57;;;;;;;9.25;2.50;;;;;;;;;;5092936;28;20090;-83
2023/07/12 07:29:25;;;;;;;6.40;2.63;;;;;;;;;;5094327;28;20101;-83
2023/07/12 07:31:52;;;;;;;4.13;2.28;;;;;;;;;;5094089;28;20048;-83
2023/07/12 07:34:19;;;;;;;6.32;2.40;;;;;;;;;;5092743;28;20052;-82
2023/07/12 07:36:47;;;;;;;4.40;2.45;;;;;;;;;;5094114;28;20044;-83
2023/07/12 07:39:14;;;;;;;10.68;3.00;;;;;;;;;;5092771;28;20048;-83
2023/07/12 07:41:41;;;;;;;2.60;2.10;;;;;;;;;;5091989;28;20052;-82
2023/07/12 07:44:08;;;;;;;5.00;2.38;;;;;;;;;;5092874;28;20520;-86
2023/07/12 07:46:36;;;;;;;21.23;3.40;;;;;;;;;;5093503;28;20078;-83
2023/07/12 07:49:03;;;;;;;3.08;2.42;;;;;;;;;;5093848;28;20048;-83
2023/07/12 07:51:33;;;;;;;3.80;2.08;;;;;;;;;;5092318;28;20044;-81
2023/07/12 07:54:00;;;;;;;5.25;2.58;;;;;;;;;;5093725;28;20080;-81
2023/07/12 07:56:28;;;;;;;4.75;2.30;;;;;;;;;;5092632;28;20101;-84
2023/07/12 07:58:55;;;;;;;6.15;2.15;;;;;;;;;;5092489;28;20441;-81
2023/07/12 08:01:22;;;;;;;5.18;2.65;;;;;;;;;;5093414;28;20480;-81
2023/07/12 08:03:49;;;;;;;2.95;2.58;;;;;;;;;;5092455;28;20044;-82
2023/07/12 08:06:17;;;;;;;4.15;2.33;;;;;;;;;;5092033;28;20044;-82
2023/07/12 08:08:44;;;;;;;3.55;2.72;;;;;;;;;;5093748;28;20044;-81
2023/07/12 08:11:11;;;;;;;5.22;2.90;;;;;;;;;;5092215;28;20377;-79
2023/07/12 08:13:39;;;;;;;5.57;2.70;;;;;;;;;;5092100;28;20044;-82
2023/07/12 08:16:06;;;;;;;4.97;2.97;;;;;;;;;;5093329;28;20045;-82
2023/07/12 08:18:33;;;;;;;6.60;2.72;;;;;;;;;;5091988;28;20059;-81
2023/07/12 08:21:01;;;;;;;7.95;2.65;;;;;;;;;;5092152;28;20094;-79
2023/07/12 08:23:29;;;;;;;6.65;3.45;;;;;;;;;;5093054;28;20052;-85
2023/07/12 08:25:56;;;;;;;4.05;2.60;;;;;;;;;;5091782;28;20044;-81
2023/07/12 08:28:24;;;;;;;5.05;2.67;;;;;;;;;;5093048;28;20052;-81
2023/07/12 08:30:51;;;;;;;7.38;2.95;;;;;;;;;;5091906;28;20455;-81
2023/07/12 08:33:19;;;;;;;4.68;2.88;;;;;;;;;;5092023;28;20079;-81
2023/07/12 08:35:47;;;;;;;4.82;2.80;;;;;;;;;;5093001;28;20483;-80
2023/07/12 08:38:18;;;;;;;6.47;2.70;;;;;;;;;;5092134;28;20393;-81
2023/07/12 08:40:47;;;;;;;4.85;2.65;;;;;;;;;;5091673;28;20135;-82
2023/07/12 08:43:22;;;;;;;3.83;3.00;;;;;;;;;;5091650;28;20095;-82
2023/07/12 08:45:51;;;;;;;3.58;2.97;;;;;;;;;;5091483;28;20055;-83
2023/07/12 08:48:21;;;;;;;5.70;2.70;;;;;;;;;;5092112;28;20515;-81
2023/07/12 08:50:49;;;;;;;4.68;2.30;;;;;;;;;;5093279;28;20094;-82
2023/07/12 08:53:21;;;;;;;3.17;2.60;;;;;;;;;;5092499;28;20058;-81
2023/07/12 08:55:49;;;;;;;6.57;2.88;;;;;;;;;;5091954;28;20056;-82
2023/07/12 08:58:21;;;;;;;6.60;2.80;;;;;;;;;;5091509;28;20089;-82
2023/07/12 09:00:52;;;;;;;5.93;2.58;;;;;;;;;;5092236;28;20048;-92
2023/07/12 09:03:20;;;;;;;3.22;2.35;;;;;;;;;;5093112;28;20055;-83
2023/07/12 09:05:47;;;;;;;4.18;2.85;;;;;;;;;;5091944;28;20048;-81
2023/07/12 09:08:17;;;;;;;2.78;2.50;;;;;;;;;;5091757;28;20134;-82
2023/07/12 09:10:44;;;;;;;7.10;2.95;;;;;;;;;;5091747;28;20086;-82
2023/07/12 09:13:13;;;;;;;5.82;3.00;;;;;;;;;;5092017;28;20083;-82
2023/07/12 09:15:47;;;;;;;5.03;2.65;;;;;;;;;;5091664;28;20052;-83
2023/07/12 09:18:46;;;;;;;3.22;2.90;;;;;;;;;;5093135;28;20046;-83
2023/07/12 09:21:14;;;;;;;8.50;2.95;;;;;;;;;;5083866;28;20411;-83
2023/07/12 09:23:44;;;;;;;2.88;2.15;;;;;;;;;;5092289;28;20492;-85
2023/07/12 09:26:12;;;;;;;3.35;2.50;;;;;;;;;;5093234;28;20126;-84
2023/07/12 09:28:41;;;;;;;3.53;2.53;;;;;;;;;;5092213;28;20083;-83
2023/07/12 09:31:12;;;;;;;4.72;2.38;;;;;;;;;;5092095;28;20557;-83
2023/07/12 09:33:40;;;;;;;1.95;1.60;;;;;;;;;;5092143;28;20052;-85
2023/07/12 09:36:08;;;;;;;2.17;1.30;;;;;;;;;;5092540;28;20501;-85
2023/07/12 09:38:36;;;;;;;3.08;1.55;;;;;;;;;;5094346;28;20044;-87
2023/07/12 09:41:29;;;;;;;1.95;1.67;;;;;;;;;;5091750;28;20458;-84
2023/07/12 09:43:58;;;;;;;4.53;1.35;;;;;;;;;;5089586;28;20078;-83
2023/07/12 09:46:40;;;;;;;1.40;1.40;;;;;;;;;;5091768;28;20072;-83
2023/07/12 09:49:12;;;;;;;1.92;1.77;;;;;;;;;;5092690;28;20102;-84
2023/07/12 09:52:01;;;;;;;2.10;1.38;;;;;;;;;;5091287;28;20373;-84
2023/07/12 09:54:29;;;;;;;2.17;1.77;;;;;;;;;;5091227;28;20048;-84
2023/07/12 09:57:15;;;;;;;4.82;1.45;;;;;;;;;;5091144;28;20101;-85
2023/07/12 10:00:04;;;;;;;1.65;1.38;;;;;;;;;;5090850;28;20063;-82
2023/07/12 10:02:37;;;;;;;2.85;1.60;;;;;;;;;;5090790;28;20044;-82
2023/07/12 10:05:04;;;;;;;;;;;;;;;;;;5091601;28;20048;-84
2023/07/12 10:07:46;;;;;;;2.75;1.80;;;;;;;;;;5091046;28;20455;-84
2023/07/12 10:10:24;;;;;;;2.67;1.80;;;;;;;;;;5092820;28;20079;-82
2023/07/12 10:12:59;;;;;;;3.10;1.80;;;;;;;;;;5095713;28;20040;-82
2023/07/12 10:15:29;;;;;;;3.47;1.80;;;;;;;;;;5094635;28;20048;-83
2023/07/12 10:17:56;;;;;;;11.27;2.53;;;;;;;;;;5095001;28;20135;-82
2023/07/12 10:20:24;;;;;;;3.80;1.67;;;;;;;;;;5095907;28;20048;-86
2023/07/12 10:22:52;;;;;;;3.80;2.20;;;;;;;;;;5095914;28;20113;-85
2023/07/12 10:25:20;;;;;;;4.63;2.55;;;;;;;;;;5094494;28;20466;-84
2023/07/12 10:27:50;;;;;;;3.97;2.50;;;;;;;;;;5095356;28;20052;-82
2023/07/12 10:30:18;;;;;;;2.20;2.08;;;;;;;;;;5094512;28;20078;-82
2023/07/12 10:33:09;;;;;;;5.78;2.40;;;;;;;;;;5095241;28;20477;-83
2023/07/12 10:35:45;;;;;;;2.63;2.10;;;;;;;;;;5089037;28;20454;-83
2023/07/12 10:38:14;;;;;;;4.35;2.05;;;;;;;;;;5094529;28;20475;-81
2023/07/12 10:40:45;;;;;;;3.78;2.15;;;;;;;;;;5094977;28;20101;-82
2023/07/12 10:43:15;;;;;;;2.03;1.88;;;;;;;;;;5094100;28;20097;-83
2023/07/12 10:45:43;;;;;;;2.63;2.42;;;;;;;;;;5094991;28;20052;-81
2023/07/12 10:48:17;;;;;;;5.57;2.67;;;;;;;;;;5094536;28;20071;-83
2023/07/12 10:50:48;;;;;;;3.50;2.30;;;;;;;;;;5094491;28;20076;-84
2023/07/12 10:53:20;;;;;;;3.75;2.50;;;;;;;;;;5094077;28;20113;-82
2023/07/12 10:56:05;;;;;;;2.35;1.98;;;;;;;;;;5094159;28;20052;-84
2023/07/12 10:59:02;;;;;;;7.50;2.30;;;;;;;;;;5093868;28;20040;-82
2023/07/12 11:01:35;;;;;;;5.13;2.08;;;;;;;;;;5085043;28;20442;-83
2023/07/12 11:04:10;;;;;;;7.30;2.10;;;;;;;;;;5095132;28;20076;-82
2023/07/12 11:06:56;;;;;;;3.50;2.30;;;;;;;;;;5094043;28;20071;-81
2023/07/12 11:09:24;;;;;;;2.15;1.95;;;;;;;;;;5094719;28;20044;-83
2023/07/12 11:11:59;;;;;;;2.20;2.00;;;;;;;;;;5093690;28;20055;-84
2023/07/12 11:14:45;;;;;;;9.95;2.20;;;;;;;;;;5095180;28;20458;-85
2023/07/12 11:17:17;;;;;;;2.03;1.70;;;;;;;;;;5093706;28;20040;-84
2023/07/12 11:19:46;;;;;;;3.95;1.70;;;;;;;;;;5094994;28;20052;-84
2023/07/12 11:22:17;;;;;;;2.40;1.80;;;;;;;;;;5092974;28;20048;-82
2023/07/12 11:24:45;;;;;;;5.22;1.95;;;;;;;;;;5093615;28;20040;-82
2023/07/12 11:27:34;;;;;;;3.10;1.60;;;;;;;;;;5093635;28;20056;-89
2023/07/12 11:30:14;;;;;;;6.88;2.03;;;;;;;;;;5094883;28;20051;-82
2023/07/12 11:32:42;;;;;;;7.45;1.95;;;;;;;;;;5093326;28;20079;-83
2023/07/12 11:35:16;;;;;;;3.15;1.60;;;;;;;;;;5093246;28;20051;-84
2023/07/12 11:37:50;;;;;;;4.93;2.00;;;;;;;;;;5093275;28;20052;-84
2023/07/12 11:40:22;;;;;;;3.55;2.05;;;;;;;;;;5093613;28;20047;-86
2023/07/12 11:42:49;;;;;;;4.20;1.73;;;;;;;;;;5093104;28;20056;-84
2023/07/12 11:45:19;;;;;;;4.72;1.27;;;;;;;;;;5094224;28;20052;-82
2023/07/12 11:47:49;;;;;;;3.70;1.55;;;;;;;;;;5092939;28;20052;-82
2023/07/12 11:50:27;;;;;;;2.85;1.48;;;;;;;;;;5093114;28;20048;-83
2023/07/12 11:52:55;;;;;;;13.20;2.30;;;;;;;;;;5094334;28;20051;-88
2023/07/12 11:55:30;;;;;;;1.42;1.33;;;;;;;;;;5092918;28;20097;-84
2023/07/12 11:57:57;;;;;;;13.02;1.73;;;;;;;;;;5093252;28;20123;-84
2023/07/12 12:00:26;;;;;;;4.13;1.70;;;;;;;;;;5092772;28;20105;-82
2023/07/12 12:02:55;;;;;;;2.47;1.58;;;;;;;;;;5092896;28;20072;-85
2023/07/12 12:05:27;;;;;;;3.95;1.55;;;;;;;;;;5092736;28;20109;-85
2023/07/12 12:07:56;;;;;;;1.80;1.30;;;;;;;;;;5093618;28;20074;-83
2023/07/12 12:10:24;;;;;;;1.80;1.60;;;;;;;;;;5092608;28;20492;-82
2023/07/12 12:12:52;;;;;;;2.25;1.30;;;;;;;;;;5093622;28;20048;-83
2023/07/12 12:15:22;;;;;;;1.52;1.42;;;;;;;;;;5093549;28;20080;-83
2023/07/12 12:17:51;;;;;;;1.42;1.33;;;;;;;;;;5092547;28;20539;-87
2023/07/12 12:20:23;;;;;;;1.40;1.30;;;;;;;;;;5092488;28;20055;-81
2023/07/12 12:22:56;;;;;;;5.18;1.65;;;;;;;;;;5092072;28;20102;-85
2023/07/12 12:25:26;;;;;;;1.58;1.33;;;;;;;;;;5092420;28;20051;-83
2023/07/12 12:27:54;;;;;;;2.67;1.30;;;;;;;;;;5092463;28;20480;-84
2023/07/12 12:30:29;;;;;;;2.58;1.30;;;;;;;;;;5092444;28;20048;-85
2023/07/12 12:33:04;;;;;;;1.40;1.30;;;;;;;;;;5092672;28;20090;-84
2023/07/12 12:35:32;;;;;;;2.15;1.58;;;;;;;;;;5092086;28;20056;-84
2023/07/12 12:38:12;;;;;;;4.15;1.40;;;;;;;;;;5092232;28;20074;-85
2023/07/12 12:40:47;;;;;;;15.55;2.20;;;;;;;;;;5092036;28;20118;-82
2023/07/12 12:43:18;;;;;;;4.82;1.40;;;;;;;;;;5091900;28;20405;-84
2023/07/12 12:45:46;;;;;;;3.40;1.70;;;;;;;;;;5091845;28;20056;-84
2023/07/12 12:48:13;;;;;;;2.08;1.50;;;;;;;;;;5092262;28;20078;-84
2023/07/12 12:50:48;;;;;;;1.48;1.30;;;;;;;;;;5091752;28;20134;-85
2023/07/12 12:53:18;;;;;;;3.80;1.30;;;;;;;;;;5092079;28;20052;-86
2023/07/12 12:55:49;;;;;;;15.18;2.08;;;;;;;;;;5092141;28;20052;-83
2023/07/12 12:58:19;;;;;;;7.53;1.35;;;;;;;;;;5092236;28;20094;-84
2023/07/12 13:01:08;;;;;;;4.15;1.08;;;;;;;;;;5092922;28;20484;-84
2023/07/12 13:03:38;;;;;;;3.10;1.40;;;;;;;;;;5091834;28;20052;-84
2023/07/12 13:06:15;;;;;;;2.25;1.35;;;;;;;;;;5092004;28;20058;-84
2023/07/12 13:08:43;;;;;;;1.55;0.93;;;;;;;;;;5092073;28;20127;-84
2023/07/12 13:11:31;;;;;;;3.78;1.27;;;;;;;;;;5091774;28;20074;-83
2023/07/12 13:14:01;;;;;;;2.05;1.20;;;;;;;;;;5093206;28;20109;-82
2023/07/12 13:16:31;;;;;;;4.30;1.40;;;;;;;;;;5091370;28;20090;-84
2023/07/12 13:19:01;;;;;;;2.42;1.13;;;;;;;;;;5091731;28;20048;-88
2023/07/12 13:21:33;;;;;;;1.48;1.10;;;;;;;;;;5091586;28;20052;-82
2023/07/12 13:24:01;;;;;;;2.83;1.45;;;;;;;;;;5091538;28;20040;-86
2023/07/12 13:26:29;;;;;;;2.15;0.90;;;;;;;;;;5091542;28;20048;-83
2023/07/12 13:28:56;;;;;;;1.38;1.27;;;;;;;;;;5091343;28;20052;-81
2023/07/12 13:31:25;;;;;;;4.80;1.27;;;;;;;;;;5091371;28;20123;-82
2023/07/12 13:33:52;;;;;;;0.90;0.90;;;;;;;;;;5091537;28;20484;-83
2023/07/12 13:36:33;;;;;;;5.07;1.52;;;;;;;;;;5091217;28;20048;-83
2023/07/12 13:39:20;;;;;;;1.58;1.10;;;;;;;;;;5091310;28;20123;-82
2023/07/12 13:41:51;;;;;;;4.20;1.08;;;;;;;;;;5091147;28;20087;-83
2023/07/12 13:44:21;;;;;;;2.13;1.00;;;;;;;;;;5092727;28;20439;-83
2023/07/12 13:46:52;;;;;;;5.35;1.25;;;;;;;;;;5096513;28;20488;-83
2023/07/12 13:49:19;;;;;;;8.95;1.98;;;;;;;;;;5095165;28;20051;-82
2023/07/12 13:51:47;;;;;;;1.40;1.00;;;;;;;;;;5095940;28;20040;-83
2023/07/12 13:54:16;;;;;;;4.22;1.02;;;;;;;;;;5096245;28;20053;-82
2023/07/12 13:56:44;;;;;;;1.15;1.10;;;;;;;;;;5096321;28;20052;-86
2023/07/12 13:59:14;;;;;;;1.98;1.30;;;;;;;;;;5095041;28;20051;-81
2023/07/12 14:01:45;;;;;;;0.80;0.80;;;;;;;;;;5094573;28;20488;-85
2023/07/12 14:04:32;;;;;;;2.65;1.20;;;;;;;;;;5095301;28;20052;-83
2023/07/12 14:07:04;;;;;;;2.40;1.30;;;;;;;;;;5096118;28;20071;-81
2023/07/12 14:09:34;;;;;;;5.00;1.10;;;;;;;;;;5095292;28;20060;-87
2023/07/12 14:12:02;;;;;;;2.45;1.05;;;;;;;;;;5094990;28;20511;-83
2023/07/12 14:14:29;;;;;;;1.20;1.10;;;;;;;;;;5094636;28;20048;-84
2023/07/12 14:16:56;;;;;;;2.35;1.02;;;;;;;;;;5094486;28;20492;-83
2023/07/12 14:19:28;;;;;;;1.70;1.00;;;;;;;;;;5095874;28;20040;-83
2023/07/12 14:21:58;;;;;;;0.93;0.93;;;;;;;;;;5094063;28;20055;-82
2023/07/12 14:24:25;;;;;;;1.20;1.10;;;;;;;;;;5094455;28;20484;-82
2023/07/12 14:26:53;;;;;;;2.35;1.20;;;;;;;;;;5095727;28;20404;-84
2023/07/12 14:29:20;;;;;;;2.78;1.27;;;;;;;;;;5095529;28;20059;-84
2023/07/12 14:31:51;;;;;;;1.10;0.95;;;;;;;;;;5094275;28;20048;-82
2023/07/12 14:34:18;;;;;;;1.13;1.00;;;;;;;;;;5095530;28;20480;-82
2023/07/12 14:36:46;;;;;;;3.22;1.20;;;;;;;;;;5094315;28;20091;-83
2023/07/12 14:39:13;;;;;;;1.13;0.93;;;;;;;;;;5095509;28;20480;-83
2023/07/12 14:41:42;;;;;;;1.60;1.20;;;;;;;;;;5094824;28;20056;-83
2023/07/12 14:44:14;;;;;;;1.10;1.10;;;;;;;;;;5095503;28;20040;-81
2023/07/12 14:46:42;;;;;;;1.33;0.98;;;;;;;;;;5095314;28;20195;-81
2023/07/12 14:49:10;;;;;;;3.60;0.95;;;;;;;;;;5094060;28;20571;-81
2023/07/12 14:51:37;;;;;;;1.58;1.40;;;;;;;;;;5093790;28;20052;-83
2023/07/12 14:54:11;;;;;;;1.30;1.20;;;;;;;;;;5094011;28;20051;-83
2023/07/12 14:56:38;;;;;;;;;;;;;;;;;;5093377;28;20412;-82